sensor_id;sensor_type;location;lat;lon;timestamp;pressure;altitude;pressure_sealevel;temperature;humidity
39197;BME280;42889;51.112;13.772;2023-02-01T00:00:28;98947.31;;;3.37;100.00
39197;BME280;42889;51.112;13.772;2023-02-01T00:02:54;98935.00;;;3.47;100.00
39197;BME280;42889;51.112;13.772;2023-02-01T00:05:21;98935.34;;;3.42;100.00
39197;BME280;42889;51.112;13.772;2023-02-01T00:07:48;98947.91;;;3.40;100.00
39197;BME280;42889;51.112;13.772;2023-02-01T00:10:15;98942.72;;;3.39;100.00
39197;BME280;42889;51.112;13.772;2023-02-01T00:12:42;98952.84;;;3.34;100.00
39197;BME280;42889;51.112;13.772;2023-02-01T00:15:09;98955.03;;;3.40;100.00
39197;BME280;42889;51.112;13.772;2023-02-01T00:17:36;98952.38;;;3.40;100.00
39197;BME280;42889;51.112;13.772;2023-02-01T00:20:04;98955.31;;;3.48;100.00
39197;BME280;42889;51.112;13.772;2023-02-01T00:22:30;98952.31;;;3.53;100.00
39197;BME280;42889;51.112;13.772;2023-02-01T00:24:57;98951.81;;;3.48;100.00
39197;BME280;42889;51.112;13.772;2023-02-01T00:27:24;98948.19;;;3.49;100.00
39197;BME280;42889;51.112;13.772;2023-02-01T00:29:50;98943.72;;;3.60;100.00
39197;BME280;42889;51.112;13.772;2023-02-01T00:32:17;98951.81;;;3.59;100.00
39197;BME280;42889;51.112;13.772;2023-02-01T00:34:43;98952.31;;;3.64;100.00
39197;BME280;42889;51.112;13.772;2023-02-01T00:37:10;98953.16;;;3.64;100.00
39197;BME280;42889;51.112;13.772;2023-02-01T00:39:37;98954.00;;;3.65;100.00
39197;BME280;42889;51.112;13.772;2023-02-01T00:42:03;98956.19;;;3.71;100.00
39197;BME280;42889;51.112;13.772;2023-02-01T00:44:30;98949.78;;;3.74;100.00
39197;BME280;42889;51.112;13.772;2023-02-01T00:47:00;98954.22;;;3.73;100.00
39197;BME280;42889;51.112;13.772;2023-02-01T00:49:28;98959.56;;;3.73;100.00
39197;BME280;42889;51.112;13.772;2023-02-01T00:51:55;98960.16;;;3.77;100.00
39197;BME280;42889;51.112;13.772;2023-02-01T00:54:22;98942.50;;;3.76;100.00
39197;BME280;42889;51.112;13.772;2023-02-01T00:56:49;98950.97;;;3.69;100.00
39197;BME280;42889;51.112;13.772;2023-02-01T00:59:17;98951.81;;;3.70;100.00
39197;BME280;42889;51.112;13.772;2023-02-01T01:01:44;98953.16;;;3.76;100.00
39197;BME280;42889;51.112;13.772;2023-02-01T01:04:11;98946.16;;;3.75;100.00
39197;BME280;42889;51.112;13.772;2023-02-01T01:06:38;98943.22;;;3.66;100.00
39197;BME280;42889;51.112;13.772;2023-02-01T01:09:06;98949.38;;;3.56;100.00
39197;BME280;42889;51.112;13.772;2023-02-01T01:11:36;98953.72;;;3.57;100.00
39197;BME280;42889;51.112;13.772;2023-02-01T01:14:06;98951.91;;;3.46;100.00
39197;BME280;42889;51.112;13.772;2023-02-01T01:16:34;98947.56;;;3.45;100.00
39197;BME280;42889;51.112;13.772;2023-02-01T01:19:02;98949.16;;;3.59;100.00
39197;BME280;42889;51.112;13.772;2023-02-01T01:21:29;98941.41;;;3.56;100.00
39197;BME280;42889;51.112;13.772;2023-02-01T01:23:56;98941.53;;;3.54;100.00
39197;BME280;42889;51.112;13.772;2023-02-01T01:26:25;98939.09;;;3.51;100.00
39197;BME280;42889;51.112;13.772;2023-02-01T01:28:55;98951.19;;;3.55;100.00
39197;BME280;42889;51.112;13.772;2023-02-01T01:31:22;98951.94;;;3.57;100.00
39197;BME280;42889;51.112;13.772;2023-02-01T01:33:54;98942.75;;;3.61;100.00
39197;BME280;42889;51.112;13.772;2023-02-01T01:36:22;98945.88;;;3.66;100.00
39197;BME280;42889;51.112;13.772;2023-02-01T01:38:49;98945.75;;;3.68;100.00
39197;BME280;42889;51.112;13.772;2023-02-01T01:41:20;98946.50;;;3.70;100.00
39197;BME280;42889;51.112;13.772;2023-02-01T01:46:21;98935.72;;;3.72;100.00
39197;BME280;42889;51.112;13.772;2023-02-01T01:49:01;98938.16;;;3.75;100.00
39197;BME280;42889;51.112;13.772;2023-02-01T01:51:33;98934.75;;;3.73;100.00
39197;BME280;42889;51.112;13.772;2023-02-01T01:54:07;98938.16;;;3.75;100.00
39197;BME280;42889;51.112;13.772;2023-02-01T01:56:36;98935.38;;;3.76;100.00
39197;BME280;42889;51.112;13.772;2023-02-01T01:59:03;98926.91;;;3.71;100.00
39197;BME280;42889;51.112;13.772;2023-02-01T02:01:31;98932.09;;;3.73;100.00
39197;BME280;42889;51.112;13.772;2023-02-01T02:03:59;98932.22;;;3.71;100.00
39197;BME280;42889;51.112;13.772;2023-02-01T02:06:40;98928.84;;;3.69;100.00
39197;BME280;42889;51.112;13.772;2023-02-01T02:09:11;98931.50;;;3.69;100.00
39197;BME280;42889;51.112;13.772;2023-02-01T02:11:37;98928.59;;;3.72;100.00
39197;BME280;42889;51.112;13.772;2023-02-01T02:14:07;98920.50;;;3.74;100.00
39197;BME280;42889;51.112;13.772;2023-02-01T02:22:10;98913.84;;;3.79;100.00
39197;BME280;42889;51.112;13.772;2023-02-01T02:31:28;98918.78;;;3.84;100.00
39197;BME280;42889;51.112;13.772;2023-02-01T02:37:29;98911.56;;;3.75;100.00
39197;BME280;42889;51.112;13.772;2023-02-01T02:42:16;98911.06;;;3.69;100.00
39197;BME280;42889;51.112;13.772;2023-02-01T02:45:10;98889.03;;;3.67;100.00
39197;BME280;42889;51.112;13.772;2023-02-01T02:48:22;98884.19;;;3.61;100.00
39197;BME280;42889;51.112;13.772;2023-02-01T02:50:59;98876.47;;;3.58;100.00
39197;BME280;42889;51.112;13.772;2023-02-01T02:56:52;98887.69;;;3.62;100.00
39197;BME280;42889;51.112;13.772;2023-02-01T02:59:40;98894.75;;;3.63;100.00
39197;BME280;42889;51.112;13.772;2023-02-01T03:02:28;98898.34;;;3.62;100.00
39197;BME280;42889;51.112;13.772;2023-02-01T03:05:15;98900.66;;;3.55;100.00
39197;BME280;42889;51.112;13.772;2023-02-01T03:08:24;98902.94;;;3.60;100.00
39197;BME280;42889;51.112;13.772;2023-02-01T03:16:32;98900.53;;;3.57;100.00
39197;BME280;42889;51.112;13.772;2023-02-01T03:19:05;98911.28;;;3.55;100.00
39197;BME280;42889;51.112;13.772;2023-02-01T03:21:40;98912.97;;;3.56;100.00
39197;BME280;42889;51.112;13.772;2023-02-01T03:24:21;98905.13;;;3.55;100.00
39197;BME280;42889;51.112;13.772;2023-02-01T03:32:16;98909.75;;;3.64;100.00
39197;BME280;42889;51.112;13.772;2023-02-01T03:34:44;98891.81;;;3.66;100.00
39197;BME280;42889;51.112;13.772;2023-02-01T03:37:12;98896.91;;;3.69;100.00
39197;BME280;42889;51.112;13.772;2023-02-01T03:39:45;98883.72;;;3.67;100.00
39197;BME280;42889;51.112;13.772;2023-02-01T03:47:35;98895.94;;;3.70;100.00
39197;BME280;42889;51.112;13.772;2023-02-01T03:50:09;98898.47;;;3.72;100.00
39197;BME280;42889;51.112;13.772;2023-02-01T03:52:43;98893.03;;;3.73;100.00
39197;BME280;42889;51.112;13.772;2023-02-01T03:55:15;98897.63;;;3.71;100.00
39197;BME280;42889;51.112;13.772;2023-02-01T03:57:52;98889.50;;;3.73;100.00
39197;BME280;42889;51.112;13.772;2023-02-01T04:00:25;98892.06;;;3.74;100.00
39197;BME280;42889;51.112;13.772;2023-02-01T04:02:54;98882.16;;;3.76;100.00
39197;BME280;42889;51.112;13.772;2023-02-01T04:05:21;98875.28;;;3.74;100.00
39197;BME280;42889;51.112;13.772;2023-02-01T04:07:56;98879.63;;;3.75;100.00
39197;BME280;42889;51.112;13.772;2023-02-01T04:10:23;98861.69;;;3.77;100.00
39197;BME280;42889;51.112;13.772;2023-02-01T04:12:51;98874.16;;;3.76;100.00
39197;BME280;42889;51.112;13.772;2023-02-01T04:15:17;98872.34;;;3.77;100.00
39197;BME280;42889;51.112;13.772;2023-02-01T04:17:44;98868.00;;;3.76;100.00
39197;BME280;42889;51.112;13.772;2023-02-01T04:20:11;98870.53;;;3.77;100.00
39197;BME280;42889;51.112;13.772;2023-02-01T04:22:38;98869.69;;;3.77;100.00
39197;BME280;42889;51.112;13.772;2023-02-01T04:25:05;98861.69;;;3.77;100.00
39197;BME280;42889;51.112;13.772;2023-02-01T04:27:32;98854.56;;;3.77;100.00
39197;BME280;42889;51.112;13.772;2023-02-01T04:29:58;98853.72;;;3.77;100.00
39197;BME280;42889;51.112;13.772;2023-02-01T04:32:25;98843.34;;;3.74;100.00
39197;BME280;42889;51.112;13.772;2023-02-01T04:34:53;98842.34;;;3.75;100.00
39197;BME280;42889;51.112;13.772;2023-02-01T04:37:19;98837.41;;;3.70;100.00
39197;BME280;42889;51.112;13.772;2023-02-01T04:39:46;98837.53;;;3.68;100.00
39197;BME280;42889;51.112;13.772;2023-02-01T04:42:12;98841.88;;;3.69;100.00
39197;BME280;42889;51.112;13.772;2023-02-01T04:44:39;98841.75;;;3.71;100.00
39197;BME280;42889;51.112;13.772;2023-02-01T04:47:08;98844.41;;;3.71;100.00
39197;BME280;42889;51.112;13.772;2023-02-01T04:49:35;98841.88;;;3.69;100.00
39197;BME280;42889;51.112;13.772;2023-02-01T04:52:02;98833.91;;;3.69;100.00
39197;BME280;42889;51.112;13.772;2023-02-01T04:54:29;98826.16;;;3.66;100.00
39197;BME280;42889;51.112;13.772;2023-02-01T04:56:55;98822.78;;;3.64;100.00
39197;BME280;42889;51.112;13.772;2023-02-01T04:59:22;98820.69;;;3.68;100.00
39197;BME280;42889;51.112;13.772;2023-02-01T05:01:49;98821.78;;;3.65;100.00
39197;BME280;42889;51.112;13.772;2023-02-01T05:04:15;98817.78;;;3.71;100.00
39197;BME280;42889;51.112;13.772;2023-02-01T05:06:45;98809.69;;;3.73;100.00
39197;BME280;42889;51.112;13.772;2023-02-01T05:09:12;98813.31;;;3.72;100.00
39197;BME280;42889;51.112;13.772;2023-02-01T05:11:38;98804.34;;;3.73;100.00
39197;BME280;42889;51.112;13.772;2023-02-01T05:14:24;98800.97;;;3.70;100.00
39197;BME280;42889;51.112;13.772;2023-02-01T05:16:51;98804.63;;;3.69;100.00
39197;BME280;42889;51.112;13.772;2023-02-01T05:19:17;98799.03;;;3.73;100.00
39197;BME280;42889;51.112;13.772;2023-02-01T05:21:44;98799.88;;;3.73;100.00
39197;BME280;42889;51.112;13.772;2023-02-01T05:24:11;98783.81;;;3.75;100.00
39197;BME280;42889;51.112;13.772;2023-02-01T05:26:40;98784.66;;;3.75;100.00
39197;BME280;42889;51.112;13.772;2023-02-01T05:29:08;98784.03;;;3.72;100.00
39197;BME280;42889;51.112;13.772;2023-02-01T05:31:36;98782.13;;;3.74;100.00
39197;BME280;42889;51.112;13.772;2023-02-01T05:34:03;98781.16;;;3.75;100.00
39197;BME280;42889;51.112;13.772;2023-02-01T05:36:31;98782.97;;;3.74;100.00
39197;BME280;42889;51.112;13.772;2023-02-01T05:38:57;98774.97;;;3.74;100.00
39197;BME280;42889;51.112;13.772;2023-02-01T05:41:24;98782.22;;;3.72;100.00
39197;BME280;42889;51.112;13.772;2023-02-01T05:43:51;98788.28;;;3.74;100.00
39197;BME280;42889;51.112;13.772;2023-02-01T05:46:17;98788.53;;;3.71;100.00
39197;BME280;42889;51.112;13.772;2023-02-01T05:48:44;98773.03;;;3.76;100.00
39197;BME280;42889;51.112;13.772;2023-02-01T05:51:12;98772.06;;;3.77;100.00
39197;BME280;42889;51.112;13.772;2023-02-01T05:53:39;98774.72;;;3.77;100.00
39197;BME280;42889;51.112;13.772;2023-02-01T05:56:05;98771.69;;;3.82;100.00
39197;BME280;42889;51.112;13.772;2023-02-01T05:58:32;98779.53;;;3.83;100.00
39197;BME280;42889;51.112;13.772;2023-02-01T06:01:00;98772.53;;;3.82;100.00
39197;BME280;42889;51.112;13.772;2023-02-01T06:03:26;98768.31;;;3.80;100.00
39197;BME280;42889;51.112;13.772;2023-02-01T06:05:53;98763.22;;;3.77;100.00
39197;BME280;42889;51.112;13.772;2023-02-01T06:08:20;98768.22;;;3.70;100.00
39197;BME280;42889;51.112;13.772;2023-02-01T06:10:47;98765.72;;;3.57;100.00
39197;BME280;42889;51.112;13.772;2023-02-01T06:13:14;98777.19;;;3.58;100.00
39197;BME280;42889;51.112;13.772;2023-02-01T06:15:40;98775.09;;;3.61;100.00
39197;BME280;42889;51.112;13.772;2023-02-01T06:18:08;98764.22;;;3.64;100.00
39197;BME280;42889;51.112;13.772;2023-02-01T06:20:35;98762.78;;;3.60;100.00
39197;BME280;42889;51.112;13.772;2023-02-01T06:23:02;98767.59;;;3.66;100.00
39197;BME280;42889;51.112;13.772;2023-02-01T06:25:28;98752.47;;;3.67;100.00
39197;BME280;42889;51.112;13.772;2023-02-01T06:27:55;98752.25;;;3.70;100.00
39197;BME280;42889;51.112;13.772;2023-02-01T06:30:26;98759.84;;;3.75;100.00
39197;BME280;42889;51.112;13.772;2023-02-01T06:32:53;98764.81;;;3.79;100.00
39197;BME280;42889;51.112;13.772;2023-02-01T06:35:20;98754.25;;;3.78;100.00
39197;BME280;42889;51.112;13.772;2023-02-01T06:37:46;98760.19;;;3.81;100.00
39197;BME280;42889;51.112;13.772;2023-02-01T06:40:13;98764.53;;;3.82;100.00
39197;BME280;42889;51.112;13.772;2023-02-01T06:42:40;98762.72;;;3.83;100.00
39197;BME280;42889;51.112;13.772;2023-02-01T06:45:07;98757.41;;;3.83;100.00
39197;BME280;42889;51.112;13.772;2023-02-01T06:47:34;98765.16;;;3.86;100.00
39197;BME280;42889;51.112;13.772;2023-02-01T06:50:00;98761.63;;;3.85;100.00
39197;BME280;42889;51.112;13.772;2023-02-01T06:52:27;98752.91;;;3.83;100.00
39197;BME280;42889;51.112;13.772;2023-02-01T06:54:54;98754.59;;;3.84;100.00
39197;BME280;42889;51.112;13.772;2023-02-01T06:57:21;98745.78;;;3.84;100.00
39197;BME280;42889;51.112;13.772;2023-02-01T06:59:47;98757.25;;;3.84;100.00
39197;BME280;42889;51.112;13.772;2023-02-01T07:02:14;98749.53;;;3.81;100.00
39197;BME280;42889;51.112;13.772;2023-02-01T07:04:40;98744.34;;;3.80;100.00
39197;BME280;42889;51.112;13.772;2023-02-01T07:07:07;98749.91;;;3.77;100.00
39197;BME280;42889;51.112;13.772;2023-02-01T07:09:34;98747.97;;;3.79;100.00
39197;BME280;42889;51.112;13.772;2023-02-01T07:12:00;98746.19;;;3.79;100.00
39197;BME280;42889;51.112;13.772;2023-02-01T07:14:27;98749.31;;;3.73;100.00
39197;BME280;42889;51.112;13.772;2023-02-01T07:16:54;98734.69;;;3.67;100.00
39197;BME280;42889;51.112;13.772;2023-02-01T07:19:20;98734.97;;;3.64;100.00
39197;BME280;42889;51.112;13.772;2023-02-01T07:21:47;98735.34;;;3.60;100.00
39197;BME280;42889;51.112;13.772;2023-02-01T07:24:13;98752.03;;;3.51;100.00
39197;BME280;42889;51.112;13.772;2023-02-01T07:26:41;98752.41;;;3.35;100.00
39197;BME280;42889;51.112;13.772;2023-02-01T07:29:07;98755.47;;;3.30;100.00
39197;BME280;42889;51.112;13.772;2023-02-01T07:31:34;98746.88;;;3.15;100.00
39197;BME280;42889;51.112;13.772;2023-02-01T07:34:01;98750.16;;;3.08;100.00
39197;BME280;42889;51.112;13.772;2023-02-01T07:36:29;98746.03;;;3.04;100.00
39197;BME280;42889;51.112;13.772;2023-02-01T07:38:55;98740.88;;;3.02;100.00
39197;BME280;42889;51.112;13.772;2023-02-01T07:41:23;98746.88;;;3.04;100.00
39197;BME280;42889;51.112;13.772;2023-02-01T07:43:52;98739.16;;;3.01;100.00
39197;BME280;42889;51.112;13.772;2023-02-01T07:46:20;98736.47;;;3.01;100.00
39197;BME280;42889;51.112;13.772;2023-02-01T07:48:46;98735.53;;;3.02;100.00
39197;BME280;42889;51.112;13.772;2023-02-01T07:51:15;98732.75;;;3.04;100.00
39197;BME280;42889;51.112;13.772;2023-02-01T07:53:43;98728.91;;;3.08;100.00
39197;BME280;42889;51.112;13.772;2023-02-01T07:56:19;98731.44;;;3.09;100.00
39197;BME280;42889;51.112;13.772;2023-02-01T07:58:53;98730.09;;;3.15;100.00
39197;BME280;42889;51.112;13.772;2023-02-01T08:01:25;98722.97;;;3.15;100.00
39197;BME280;42889;51.112;13.772;2023-02-01T08:03:58;98720.03;;;3.18;100.00
39197;BME280;42889;51.112;13.772;2023-02-01T08:06:26;98716.53;;;3.18;100.00
39197;BME280;42889;51.112;13.772;2023-02-01T08:08:53;98717.00;;;3.23;100.00
39197;BME280;42889;51.112;13.772;2023-02-01T08:11:21;98721.38;;;3.24;100.00
39197;BME280;42889;51.112;13.772;2023-02-01T08:13:49;98717.28;;;3.20;100.00
39197;BME280;42889;51.112;13.772;2023-02-01T08:16:18;98718.13;;;3.21;100.00
39197;BME280;42889;51.112;13.772;2023-02-01T08:18:45;98717.28;;;3.20;100.00
39197;BME280;42889;51.112;13.772;2023-02-01T08:21:32;98706.75;;;3.18;100.00
39197;BME280;42889;51.112;13.772;2023-02-01T08:24:08;98709.41;;;3.18;100.00
39197;BME280;42889;51.112;13.772;2023-02-01T08:26:36;98707.72;;;3.17;100.00
39197;BME280;42889;51.112;13.772;2023-02-01T08:29:05;98709.06;;;3.12;100.00
39197;BME280;42889;51.112;13.772;2023-02-01T08:31:32;98714.03;;;3.05;100.00
39197;BME280;42889;51.112;13.772;2023-02-01T08:34:01;98704.94;;;2.97;100.00
39197;BME280;42889;51.112;13.772;2023-02-01T08:36:30;98701.34;;;2.98;100.00
39197;BME280;42889;51.112;13.772;2023-02-01T08:38:57;98705.56;;;2.89;100.00
39197;BME280;42889;51.112;13.772;2023-02-01T08:41:26;98693.25;;;2.88;100.00
39197;BME280;42889;51.112;13.772;2023-02-01T08:43:53;98692.03;;;3.03;100.00
39197;BME280;42889;51.112;13.772;2023-02-01T08:46:22;98690.94;;;3.06;100.00
39197;BME280;42889;51.112;13.772;2023-02-01T08:48:49;98683.06;;;3.15;100.00
39197;BME280;42889;51.112;13.772;2023-02-01T08:51:18;98679.78;;;3.23;100.00
39197;BME280;42889;51.112;13.772;2023-02-01T08:53:45;98685.47;;;3.30;100.00
39197;BME280;42889;51.112;13.772;2023-02-01T08:56:13;98679.88;;;3.44;100.00
39197;BME280;42889;51.112;13.772;2023-02-01T08:58:40;98677.91;;;3.57;100.00
39197;BME280;42889;51.112;13.772;2023-02-01T09:01:12;98667.69;;;3.74;100.00
39197;BME280;42889;51.112;13.772;2023-02-01T09:03:40;98659.75;;;3.83;100.00
39197;BME280;42889;51.112;13.772;2023-02-01T09:06:12;98676.19;;;3.88;100.00
39197;BME280;42889;51.112;13.772;2023-02-01T09:08:40;98660.69;;;3.93;100.00
39197;BME280;42889;51.112;13.772;2023-02-01T09:11:10;98675.44;;;3.97;100.00
39197;BME280;42889;51.112;13.772;2023-02-01T09:13:37;98657.78;;;3.96;100.00
39197;BME280;42889;51.112;13.772;2023-02-01T09:16:04;98663.66;;;4.00;100.00
39197;BME280;42889;51.112;13.772;2023-02-01T09:18:31;98670.28;;;4.06;100.00
39197;BME280;42889;51.112;13.772;2023-02-01T09:20:58;98671.28;;;4.05;100.00
39197;BME280;42889;51.112;13.772;2023-02-01T09:23:24;98673.22;;;4.03;100.00
39197;BME280;42889;51.112;13.772;2023-02-01T09:25:51;98668.75;;;4.03;100.00
39197;BME280;42889;51.112;13.772;2023-02-01T09:28:18;98671.28;;;4.05;100.00
39197;BME280;42889;51.112;13.772;2023-02-01T09:30:45;98664.25;;;4.04;100.00
39197;BME280;42889;51.112;13.772;2023-02-01T09:33:12;98661.75;;;4.02;100.00
39197;BME280;42889;51.112;13.772;2023-02-01T09:35:39;98653.28;;;3.97;100.00
39197;BME280;42889;51.112;13.772;2023-02-01T09:38:05;98670.25;;;3.96;100.00
39197;BME280;42889;51.112;13.772;2023-02-01T09:40:34;98667.97;;;3.91;100.00
39197;BME280;42889;51.112;13.772;2023-02-01T09:43:16;98677.16;;;3.87;100.00
39197;BME280;42889;51.112;13.772;2023-02-01T09:48:36;98687.19;;;3.63;100.00
39197;BME280;42889;51.112;13.772;2023-02-01T09:51:13;98673.22;;;3.38;100.00
39197;BME280;42889;51.112;13.772;2023-02-01T09:53:45;98703.00;;;3.21;100.00
39197;BME280;42889;51.112;13.772;2023-02-01T09:56:24;98716.81;;;3.04;100.00
39197;BME280;42889;51.112;13.772;2023-02-01T09:59:00;98710.88;;;2.78;100.00
39197;BME280;42889;51.112;13.772;2023-02-01T10:01:31;98724.78;;;2.59;100.00
39197;BME280;42889;51.112;13.772;2023-02-01T10:04:03;98737.41;;;2.44;100.00
39197;BME280;42889;51.112;13.772;2023-02-01T10:06:41;98735.22;;;2.38;100.00
39197;BME280;42889;51.112;13.772;2023-02-01T10:18:10;98743.88;;;2.29;100.00
39197;BME280;42889;51.112;13.772;2023-02-01T10:26:40;98753.44;;;2.31;100.00
39197;BME280;42889;51.112;13.772;2023-02-01T10:29:16;98763.47;;;2.39;100.00
39197;BME280;42889;51.112;13.772;2023-02-01T10:31:44;98742.94;;;2.41;100.00
39197;BME280;42889;51.112;13.772;2023-02-01T10:34:24;98748.38;;;2.40;100.00
39197;BME280;42889;51.112;13.772;2023-02-01T10:39:21;98753.38;;;2.55;100.00
39197;BME280;42889;51.112;13.772;2023-02-01T10:41:48;98747.69;;;2.60;100.00
39197;BME280;42889;51.112;13.772;2023-02-01T10:44:19;98735.75;;;2.66;100.00
39197;BME280;42889;51.112;13.772;2023-02-01T10:46:49;98753.59;;;2.63;100.00
39197;BME280;42889;51.112;13.772;2023-02-01T10:49:28;98759.19;;;2.72;100.00
39197;BME280;42889;51.112;13.772;2023-02-01T10:54:37;98765.50;;;2.82;100.00
39197;BME280;42889;51.112;13.772;2023-02-01T10:57:31;98755.09;;;2.90;100.00
39197;BME280;42889;51.112;13.772;2023-02-01T11:00:06;98753.41;;;2.89;100.00
39197;BME280;42889;51.112;13.772;2023-02-01T11:02:44;98760.06;;;3.06;100.00
39197;BME280;42889;51.112;13.772;2023-02-01T11:05:11;98750.25;;;3.17;100.00
39197;BME280;42889;51.112;13.772;2023-02-01T11:07:39;98755.56;;;3.29;100.00
39197;BME280;42889;51.112;13.772;2023-02-01T11:10:36;98750.13;;;3.41;100.00
39197;BME280;42889;51.112;13.772;2023-02-01T11:13:04;98764.13;;;3.55;100.00
39197;BME280;42889;51.112;13.772;2023-02-01T11:15:31;98772.34;;;3.63;100.00
39197;BME280;42889;51.112;13.772;2023-02-01T11:18:15;98758.28;;;3.72;100.00
39197;BME280;42889;51.112;13.772;2023-02-01T11:20:42;98755.09;;;3.78;100.00
39197;BME280;42889;51.112;13.772;2023-02-01T11:23:18;98765.25;;;3.84;100.00
39197;BME280;42889;51.112;13.772;2023-02-01T11:26:09;98754.72;;;3.83;100.00
39197;BME280;42889;51.112;13.772;2023-02-01T11:28:39;98752.81;;;3.85;100.00
39197;BME280;42889;51.112;13.772;2023-02-01T11:31:11;98750.84;;;3.87;100.00
39197;BME280;42889;51.112;13.772;2023-02-01T11:33:51;98751.06;;;3.95;100.00
39197;BME280;42889;51.112;13.772;2023-02-01T11:36:27;98742.00;;;3.97;100.00
39197;BME280;42889;51.112;13.772;2023-02-01T11:44:29;98739.47;;;3.96;100.00
39197;BME280;42889;51.112;13.772;2023-02-01T11:47:28;98734.59;;;4.01;100.00
39197;BME280;42889;51.112;13.772;2023-02-01T11:50:00;98737.38;;;4.00;100.00
39197;BME280;42889;51.112;13.772;2023-02-01T11:55:39;98722.66;;;3.84;100.00
39197;BME280;42889;51.112;13.772;2023-02-01T12:01:03;98716.72;;;3.60;100.00
39197;BME280;42889;51.112;13.772;2023-02-01T12:03:46;98719.53;;;3.47;100.00
39197;BME280;42889;51.112;13.772;2023-02-01T12:06:31;98722.66;;;3.52;100.00
39197;BME280;42889;51.112;13.772;2023-02-01T12:12:06;98719.97;;;3.63;100.00
39197;BME280;42889;51.112;13.772;2023-02-01T12:23:03;98706.78;;;3.94;100.00
39197;BME280;42889;51.112;13.772;2023-02-01T12:25:35;98704.72;;;3.97;100.00
39197;BME280;42889;51.112;13.772;2023-02-01T12:33:39;98703.97;;;4.07;100.00
39197;BME280;42889;51.112;13.772;2023-02-01T12:38:46;98693.13;;;4.19;100.00
39197;BME280;42889;51.112;13.772;2023-02-01T12:41:53;98690.91;;;4.25;100.00
39197;BME280;42889;51.112;13.772;2023-02-01T12:46:57;98686.59;;;4.33;100.00
39197;BME280;42889;51.112;13.772;2023-02-01T12:52:13;98682.84;;;4.36;100.00
39197;BME280;42889;51.112;13.772;2023-02-01T12:57:15;98671.66;;;4.42;100.00
39197;BME280;42889;51.112;13.772;2023-02-01T13:00:12;98675.69;;;4.36;100.00
39197;BME280;42889;51.112;13.772;2023-02-01T13:02:53;98673.94;;;4.46;100.00
39197;BME280;42889;51.112;13.772;2023-02-01T13:08:14;98672.28;;;4.55;100.00
39197;BME280;42889;51.112;13.772;2023-02-01T13:10:51;98664.75;;;4.60;100.00
39197;BME280;42889;51.112;13.772;2023-02-01T13:13:29;98664.78;;;4.70;100.00
39197;BME280;42889;51.112;13.772;2023-02-01T13:16:12;98668.88;;;4.74;100.00
39197;BME280;42889;51.112;13.772;2023-02-01T13:18:46;98665.25;;;4.75;100.00
39197;BME280;42889;51.112;13.772;2023-02-01T13:21:24;98663.59;;;4.84;100.00
39197;BME280;42889;51.112;13.772;2023-02-01T13:23:52;98662.47;;;4.86;100.00
39197;BME280;42889;51.112;13.772;2023-02-01T13:26:19;98670.31;;;4.88;100.00
39197;BME280;42889;51.112;13.772;2023-02-01T13:28:47;98654.34;;;4.88;100.00
39197;BME280;42889;51.112;13.772;2023-02-01T13:45:02;98648.03;;;4.89;100.00
39197;BME280;42889;51.112;13.772;2023-02-01T13:47:38;98635.81;;;4.86;100.00
39197;BME280;42889;51.112;13.772;2023-02-01T13:50:32;98634.69;;;4.89;100.00
39197;BME280;42889;51.112;13.772;2023-02-01T13:53:15;98636.25;;;4.91;100.00
39197;BME280;42889;51.112;13.772;2023-02-01T13:55:45;98640.59;;;4.92;100.00
39197;BME280;42889;51.112;13.772;2023-02-01T13:58:18;98638.78;;;4.93;100.00
39197;BME280;42889;51.112;13.772;2023-02-01T14:00:47;98644.25;;;4.91;100.00
39197;BME280;42889;51.112;13.772;2023-02-01T14:03:16;98637.09;;;4.92;100.00
39197;BME280;42889;51.112;13.772;2023-02-01T14:08:20;98628.25;;;4.91;100.00
39197;BME280;42889;51.112;13.772;2023-02-01T14:10:48;98632.75;;;4.91;100.00
39197;BME280;42889;51.112;13.772;2023-02-01T14:21:34;98634.44;;;4.92;100.00
39197;BME280;42889;51.112;13.772;2023-02-01T14:29:40;98638.78;;;4.93;100.00
39197;BME280;42889;51.112;13.772;2023-02-01T14:44:48;98612.97;;;4.93;100.00
39197;BME280;42889;51.112;13.772;2023-02-01T14:47:29;98618.19;;;4.95;100.00
39197;BME280;42889;51.112;13.772;2023-02-01T14:52:40;98617.31;;;4.94;100.00
39197;BME280;42889;51.112;13.772;2023-02-01T15:00:54;98620.41;;;4.90;100.00
39197;BME280;42889;51.112;13.772;2023-02-01T15:03:30;98616.03;;;4.89;100.00
39197;BME280;42889;51.112;13.772;2023-02-01T15:05:59;98612.22;;;4.82;100.00
39197;BME280;42889;51.112;13.772;2023-02-01T15:08:39;98613.66;;;4.86;100.00
39197;BME280;42889;51.112;13.772;2023-02-01T15:11:11;98599.34;;;4.87;100.00
39197;BME280;42889;51.112;13.772;2023-02-01T15:13:40;98599.75;;;4.82;100.00
39197;BME280;42889;51.112;13.772;2023-02-01T15:16:13;98607.19;;;4.79;100.00
39197;BME280;42889;51.112;13.772;2023-02-01T15:18:41;98594.09;;;4.75;100.00
39197;BME280;42889;51.112;13.772;2023-02-01T15:21:24;98592.69;;;4.62;100.00
39197;BME280;42889;51.112;13.772;2023-02-01T15:24:12;98575.50;;;4.55;100.00
39197;BME280;42889;51.112;13.772;2023-02-01T15:26:39;98577.03;;;4.47;100.00
39197;BME280;42889;51.112;13.772;2023-02-01T15:29:10;98575.63;;;4.43;100.00
39197;BME280;42889;51.112;13.772;2023-02-01T15:31:40;98568.75;;;4.41;100.00
39197;BME280;42889;51.112;13.772;2023-02-01T15:34:09;98566.72;;;4.33;100.00
39197;BME280;42889;51.112;13.772;2023-02-01T15:36:36;98563.41;;;4.41;100.00
39197;BME280;42889;51.112;13.772;2023-02-01T15:44:21;98544.19;;;4.37;100.00
39197;BME280;42889;51.112;13.772;2023-02-01T15:46:54;98542.09;;;4.41;100.00
39197;BME280;42889;51.112;13.772;2023-02-01T15:49:28;98533.38;;;4.39;100.00